Time;durP1;ratioP1;P1;durP2;ratioP2;P2;SDS_P1;SDS_P2;PMS_P1;PMS_P2;Temp;Humidity;BMP_temperature;BMP_pressure;BME280_temperature;BME280_humidity;BME280_pressure;Samples;Min_cycle;Max_cycle;Signal;HPM_P1;HPM_P2
2023/05/08 00:00:03;;;;;;;8.23;7.43;;;;;;;14.31;100.00;99448.41;4953160;28;20211;-78
2023/05/08 00:02:32;;;;;;;10.20;7.80;;;;;;;14.46;100.00;99447.28;4949479;29;20196;-79
2023/05/08 00:05:00;;;;;;;8.10;7.30;;;;;;;14.35;100.00;99452.53;4943407;29;20189;-79
2023/05/08 00:07:28;;;;;;;9.20;7.33;;;;;;;14.48;100.00;99447.19;4949720;29;20200;-79
2023/05/08 00:09:57;;;;;;;8.47;7.67;;;;;;;14.25;100.00;99455.03;4949563;29;20200;-79
2023/05/08 00:12:25;;;;;;;8.40;7.37;;;;;;;14.47;100.00;99453.47;4948552;29;20252;-78
2023/05/08 00:14:56;;;;;;;8.47;7.67;;;;;;;14.42;100.00;99444.94;4954717;28;20231;-79
2023/05/08 00:17:24;;;;;;;7.87;7.13;;;;;;;14.51;100.00;99453.13;4985511;28;20214;-79
2023/05/08 00:19:52;;;;;;;9.90;7.53;;;;;;;14.49;100.00;99454.22;4983766;28;20214;-79
2023/05/08 00:22:21;;;;;;;7.87;7.07;;;;;;;14.48;100.00;99457.84;4992858;28;20255;-78
2023/05/08 00:24:49;;;;;;;9.73;7.60;;;;;;;14.35;100.00;99454.34;4987590;28;20290;-79
2023/05/08 00:27:17;;;;;;;9.13;8.23;;;;;;;14.36;100.00;99458.72;4984335;28;20195;-78
2023/05/08 00:29:46;;;;;;;8.17;7.37;;;;;;;14.28;100.00;99457.50;4986933;28;20712;-79
2023/05/08 00:32:15;;;;;;;9.63;7.23;;;;;;;14.11;100.00;99455.22;4986153;28;20203;-79
2023/05/08 00:34:44;;;;;;;7.50;6.80;;;;;;;14.02;100.00;99455.91;4952893;28;20239;-79
2023/05/08 00:37:12;;;;;;;8.90;8.00;;;;;;;13.84;100.00;99454.59;4944127;28;20228;-79
2023/05/08 00:39:40;;;;;;;8.73;7.70;;;;;;;13.71;100.00;99463.47;4943006;28;20204;-79
2023/05/08 00:42:08;;;;;;;8.47;7.50;;;;;;;13.83;100.00;99466.19;4948170;28;20248;-78
2023/05/08 00:44:38;;;;;;;8.33;7.43;;;;;;;13.68;100.00;99450.34;4952916;28;20196;-79
2023/05/08 00:47:06;;;;;;;8.33;7.50;;;;;;;13.67;100.00;99461.13;4945472;28;20253;-79
2023/05/08 00:49:36;;;;;;;9.03;8.13;;;;;;;13.70;100.00;99461.78;4947273;28;20201;-79
2023/05/08 00:52:07;;;;;;;8.60;7.50;;;;;;;13.75;100.00;99464.94;4957505;28;20203;-79
2023/05/08 00:54:36;;;;;;;8.70;7.90;;;;;;;13.87;100.00;99462.34;4988406;28;20187;-78
2023/05/08 00:57:07;;;;;;;8.67;7.77;;;;;;;13.61;100.00;99459.75;4990710;28;20250;-78
2023/05/08 00:59:36;;;;;;;8.17;7.37;;;;;;;13.35;100.00;99466.09;4987955;28;20202;-78
2023/05/08 01:02:05;;;;;;;8.50;7.60;;;;;;;13.40;100.00;99464.78;4989417;28;20313;-79
2023/05/08 01:04:37;;;;;;;8.43;7.63;;;;;;;13.58;100.00;99467.94;4990723;28;20191;-78
2023/05/08 01:07:05;;;;;;;8.27;7.47;;;;;;;13.73;100.00;99466.00;4989525;28;20199;-78
2023/05/08 01:09:34;;;;;;;7.77;7.07;;;;;;;13.80;100.00;99469.06;4988102;28;20198;-79
2023/05/08 01:12:16;;;;;;;10.53;7.73;;;;;;;13.78;100.00;99466.50;4988218;28;20203;-78
2023/05/08 01:14:56;;;;;;;8.30;7.20;;;;;;;13.87;100.00;99465.00;4987031;28;20190;-78
2023/05/08 01:17:35;;;;;;;8.77;7.13;;;;;;;13.67;100.00;99472.63;4993329;28;20218;-78
2023/05/08 01:20:25;;;;;;;8.70;7.20;;;;;;;13.72;100.00;99470.50;4987444;28;20211;-78
2023/05/08 01:23:32;;;;;;;8.53;7.27;;;;;;;13.50;100.00;99470.31;4988577;28;20261;-78
2023/05/08 01:26:36;;;;;;;8.00;6.97;;;;;;;13.64;100.00;99467.53;4990926;28;20210;-78
2023/05/08 01:29:42;;;;;;;9.47;6.97;;;;;;;13.69;100.00;99469.84;4992063;28;20199;-77
2023/05/08 01:32:20;;;;;;;7.87;7.17;;;;;;;13.66;100.00;99470.06;4987063;28;20199;-78
2023/05/08 01:34:57;;;;;;;7.80;7.03;;;;;;;13.61;100.00;99466.91;4983349;28;20202;-78
2023/05/08 01:37:32;;;;;;;8.13;7.33;;;;;;;13.60;100.00;99471.34;4985358;28;20230;-77
2023/05/08 01:40:09;;;;;;;8.67;6.70;;;;;;;13.51;100.00;99472.03;4986762;28;20190;-78
2023/05/08 01:42:46;;;;;;;7.50;6.80;;;;;;;13.48;100.00;99474.03;4991869;28;20203;-78
2023/05/08 01:45:20;;;;;;;8.03;7.23;;;;;;;13.52;100.00;99476.38;4995726;28;20199;-78
2023/05/08 01:48:01;;;;;;;9.13;7.07;;;;;;;13.54;100.00;99478.94;4992571;28;20194;-78
2023/05/08 01:50:36;;;;;;;7.90;7.10;;;;;;;13.07;100.00;99481.28;4985786;28;20400;-78
2023/05/08 01:53:10;;;;;;;7.87;7.13;;;;;;;13.17;100.00;99489.47;4989066;28;20246;-78
2023/05/08 01:55:41;;;;;;;8.57;7.03;;;;;;;13.16;100.00;99488.63;4989979;28;20203;-78
2023/05/08 01:58:12;;;;;;;7.60;6.57;;;;;;;13.27;100.00;99489.72;4992992;28;20218;-78
2023/05/08 02:00:41;;;;;;;8.13;7.33;;;;;;;13.21;100.00;99488.31;4984730;28;20242;-78
2023/05/08 02:03:13;;;;;;;7.80;7.00;;;;;;;13.06;100.00;99492.00;4991611;28;20191;-78
2023/05/08 02:05:43;;;;;;;9.00;7.83;;;;;;;13.08;100.00;99479.47;4993089;28;20291;-78
2023/05/08 02:08:13;;;;;;;8.20;6.93;;;;;;;13.04;100.00;99485.97;4992654;28;20199;-78
2023/05/08 02:10:43;;;;;;;8.40;7.60;;;;;;;13.07;100.00;99486.59;4990482;28;20195;-77
2023/05/08 02:13:13;;;;;;;8.27;7.43;;;;;;;12.86;100.00;99488.06;4990352;28;20215;-78
2023/05/08 02:15:42;;;;;;;8.43;7.30;;;;;;;13.06;100.00;99484.88;4988381;28;20278;-78
2023/05/08 02:18:13;;;;;;;8.60;7.70;;;;;;;12.85;100.00;99479.25;4996292;28;20278;-78
2023/05/08 02:20:42;;;;;;;7.80;7.00;;;;;;;12.97;100.00;99484.66;4992485;28;20211;-78
2023/05/08 02:23:12;;;;;;;9.43;7.33;;;;;;;13.09;100.00;99489.97;4992906;28;20195;-78
2023/05/08 02:25:41;;;;;;;9.00;7.67;;;;;;;13.24;100.00;99495.25;4996276;28;20203;-78
2023/05/08 02:28:11;;;;;;;7.73;6.93;;;;;;;13.33;100.00;99490.13;4991016;28;20199;-78
2023/05/08 02:30:40;;;;;;;7.97;7.17;;;;;;;13.46;100.00;99493.63;4989473;28;20207;-78
2023/05/08 02:33:13;;;;;;;9.07;6.70;;;;;;;13.43;100.00;99485.03;4992387;28;20191;-78
2023/05/08 02:35:45;;;;;;;8.67;6.80;;;;;;;13.44;100.00;99486.72;4989317;28;20242;-78
2023/05/08 02:38:15;;;;;;;6.90;6.30;;;;;;;13.57;100.00;99492.00;4986109;28;20218;-78
2023/05/08 02:40:47;;;;;;;8.47;6.67;;;;;;;13.30;100.00;99500.13;4995904;28;20195;-78
2023/05/08 02:43:17;;;;;;;7.40;6.70;;;;;;;13.40;100.00;99503.84;4996007;28;20249;-78
2023/05/08 02:45:49;;;;;;;9.07;6.90;;;;;;;13.13;100.00;99496.81;4991791;28;20205;-78
2023/05/08 02:48:26;;;;;;;7.93;7.13;;;;;;;13.41;100.00;99500.22;4989582;28;20327;-78
2023/05/08 02:51:00;;;;;;;7.30;6.60;;;;;;;13.40;100.00;99496.72;4950884;29;20196;-78
2023/05/08 02:53:35;;;;;;;7.63;6.87;;;;;;;13.45;100.00;99497.25;4955017;29;20203;-78
2023/05/08 02:56:10;;;;;;;8.10;7.03;;;;;;;13.67;100.00;99496.56;4949697;29;20204;-78
2023/05/08 02:58:43;;;;;;;8.93;6.50;;;;;;;13.60;100.00;99497.97;4950457;29;20227;-78
2023/05/08 03:01:26;;;;;;;7.30;6.60;;;;;;;13.70;100.00;99498.16;4960424;28;20265;-77
2023/05/08 03:04:05;;;;;;;7.93;7.13;;;;;;;13.29;100.00;99499.28;4968486;28;20227;-77
2023/05/08 03:06:38;;;;;;;8.93;7.00;;;;;;;13.11;100.00;99505.84;4965736;28;20261;-78
2023/05/08 03:09:12;;;;;;;7.70;7.00;;;;;;;13.02;100.00;99502.00;4962461;28;20203;-78
2023/05/08 03:11:43;;;;;;;7.80;7.00;;;;;;;13.02;100.00;99507.31;4966988;28;20208;-78
2023/05/08 03:14:14;;;;;;;9.87;7.60;;;;;;;13.05;100.00;99498.28;4975845;28;20203;-78
2023/05/08 03:16:45;;;;;;;8.07;7.27;;;;;;;13.18;100.00;99507.13;4970093;28;20207;-78
2023/05/08 03:19:22;;;;;;;8.40;7.30;;;;;;;13.00;100.00;99506.56;4975741;28;20348;-78
2023/05/08 03:21:55;;;;;;;8.10;7.30;;;;;;;13.04;100.00;99509.91;4972212;28;20210;-78
2023/05/08 03:24:25;;;;;;;8.77;7.43;;;;;;;12.81;100.00;99512.28;4972857;28;20204;-78
2023/05/08 03:26:55;;;;;;;8.80;7.47;;;;;;;12.82;100.00;99516.66;4972959;28;20200;-77
2023/05/08 03:29:25;;;;;;;8.37;7.57;;;;;;;12.78;100.00;99511.66;4975669;28;20288;-78
2023/05/08 03:31:56;;;;;;;8.57;7.40;;;;;;;12.77;100.00;99513.47;4975586;28;20199;-78
2023/05/08 03:34:27;;;;;;;8.63;7.83;;;;;;;12.89;100.00;99511.78;4969721;28;20277;-78
2023/05/08 03:36:55;;;;;;;8.30;7.50;;;;;;;12.84;100.00;99511.25;4968884;28;20196;-77
2023/05/08 03:39:25;;;;;;;11.00;8.00;;;;;;;12.86;100.00;99517.31;4970137;28;20738;-77
2023/05/08 03:41:55;;;;;;;9.53;8.07;;;;;;;12.86;100.00;99512.84;4971206;28;20196;-78
2023/05/08 03:44:25;;;;;;;9.10;8.20;;;;;;;12.96;100.00;99515.72;4972587;28;20211;-78
2023/05/08 03:46:57;;;;;;;9.07;8.17;;;;;;;12.86;100.00;99520.81;4972467;28;20199;-78
2023/05/08 03:49:29;;;;;;;12.10;8.50;;;;;;;12.81;100.00;99520.25;4968346;28;20711;-77
2023/05/08 03:51:58;;;;;;;10.13;9.17;;;;;;;12.79;100.00;99511.53;4968543;28;20211;-77
2023/05/08 03:54:29;;;;;;;9.47;8.23;;;;;;;12.90;100.00;99522.31;4971639;28;20196;-77
2023/05/08 03:56:57;;;;;;;9.73;8.73;;;;;;;12.61;100.00;99526.91;4965382;28;20199;-77
2023/05/08 03:59:34;;;;;;;10.03;9.03;;;;;;;12.85;100.00;99523.59;4974816;28;20323;-79
2023/05/08 04:02:12;;;;;;;12.47;8.60;;;;;;;12.48;100.00;99534.00;4988313;28;20230;-78
2023/05/08 04:04:47;;;;;;;9.90;8.90;;;;;;;12.54;100.00;99525.59;4989734;28;20199;-77
2023/05/08 04:07:24;;;;;;;11.47;10.27;;;;;;;12.56;100.00;99534.34;4990118;28;20197;-77
2023/05/08 04:10:00;;;;;;;10.50;9.50;;;;;;;12.48;100.00;99535.81;4988451;28;20237;-77
2023/05/08 04:12:36;;;;;;;10.10;9.10;;;;;;;12.69;100.00;99541.50;4988808;28;20658;-78
2023/05/08 04:15:09;;;;;;;11.60;8.60;;;;;;;12.50;100.00;99540.06;4994148;28;20205;-78
2023/05/08 04:17:42;;;;;;;11.57;9.77;;;;;;;12.54;100.00;99544.19;4993414;28;20206;-78
2023/05/08 04:20:17;;;;;;;10.20;9.17;;;;;;;12.48;100.00;99547.28;4987813;28;20233;-78
2023/05/08 04:22:47;;;;;;;11.73;9.17;;;;;;;12.54;100.00;99544.19;4991065;28;20187;-78
2023/05/08 04:25:18;;;;;;;12.07;9.33;;;;;;;12.52;100.00;99546.13;4987272;28;20211;-78
2023/05/08 04:27:49;;;;;;;9.87;8.97;;;;;;;12.56;100.00;99552.09;4991295;28;20271;-78
2023/05/08 04:30:18;;;;;;;9.83;8.77;;;;;;;12.77;100.00;99547.16;4983827;28;20226;-78
2023/05/08 04:32:47;;;;;;;10.80;9.10;;;;;;;12.67;100.00;99554.06;4993737;28;20261;-78
2023/05/08 04:35:18;;;;;;;10.27;9.27;;;;;;;12.80;100.00;99558.44;4992513;28;20222;-78
2023/05/08 04:37:47;;;;;;;11.87;9.50;;;;;;;12.77;100.00;99557.81;4982884;28;20211;-78
2023/05/08 04:40:15;;;;;;;10.27;9.27;;;;;;;12.70;100.00;99560.00;4990900;28;20222;-78
2023/05/08 04:42:46;;;;;;;10.50;9.23;;;;;;;12.33;100.00;99564.22;4986925;28;20203;-78
2023/05/08 04:45:15;;;;;;;11.03;9.93;;;;;;;12.49;100.00;99561.41;4988450;28;20527;-78
2023/05/08 04:47:43;;;;;;;11.30;9.30;;;;;;;12.73;100.00;99565.09;4987989;28;20250;-77
2023/05/08 04:50:11;;;;;;;11.20;9.97;;;;;;;12.71;100.00;99567.03;4986172;28;20680;-78
2023/05/08 04:52:41;;;;;;;11.30;10.13;;;;;;;12.54;100.00;99560.16;4990596;28;20199;-78
2023/05/08 04:55:13;;;;;;;12.93;10.23;;;;;;;12.70;100.00;99567.13;4983519;28;20234;-78
2023/05/08 04:57:41;;;;;;;11.23;9.67;;;;;;;12.64;100.00;99565.72;4984358;28;20230;-79
2023/05/08 05:00:11;;;;;;;10.03;9.03;;;;;;;12.68;100.00;99567.22;4985152;28;20247;-78
2023/05/08 05:02:40;;;;;;;11.50;9.27;;;;;;;12.61;100.00;99572.09;4981006;28;20254;-78
2023/05/08 05:05:08;;;;;;;11.33;10.13;;;;;;;12.56;100.00;99576.88;4989465;28;20206;-78
2023/05/08 05:07:37;;;;;;;10.33;9.30;;;;;;;12.58;100.00;99582.94;4982767;28;20294;-79
2023/05/08 05:10:08;;;;;;;10.73;9.63;;;;;;;12.50;100.00;99579.91;4983388;28;20241;-78
2023/05/08 05:12:38;;;;;;;10.93;9.73;;;;;;;12.50;100.00;99579.06;4987443;28;20198;-78
2023/05/08 05:15:07;;;;;;;11.87;10.67;;;;;;;12.61;100.00;99579.22;4990624;28;20191;-78
2023/05/08 05:17:35;;;;;;;10.77;9.63;;;;;;;12.70;100.00;99583.06;4980748;28;20199;-78
2023/05/08 05:20:06;;;;;;;11.93;10.03;;;;;;;12.67;100.00;99581.47;4987791;28;20219;-78
2023/05/08 05:22:34;;;;;;;11.17;9.30;;;;;;;12.71;100.00;99580.31;4975910;28;20202;-78
2023/05/08 05:25:03;;;;;;;11.30;9.53;;;;;;;12.79;100.00;99577.16;4984479;28;20195;-78
2023/05/08 05:27:34;;;;;;;10.90;9.73;;;;;;;12.80;100.00;99581.50;4988660;28;20672;-77
2023/05/08 05:30:03;;;;;;;11.93;9.80;;;;;;;12.98;100.00;99585.59;4992890;28;20262;-77
2023/05/08 05:32:32;;;;;;;11.03;9.90;;;;;;;13.02;100.00;99594.22;4986223;28;20254;-78
2023/05/08 05:35:02;;;;;;;11.50;10.33;;;;;;;12.92;100.00;99596.63;4988518;28;20274;-78
2023/05/08 05:37:31;;;;;;;11.27;10.03;;;;;;;13.01;100.00;99598.69;4988255;28;20203;-78
2023/05/08 05:39:59;;;;;;;12.43;9.67;;;;;;;13.04;100.00;99597.66;4991570;28;20269;-78
2023/05/08 05:42:27;;;;;;;10.67;9.53;;;;;;;12.92;100.00;99606.41;4990888;28;20278;-79
2023/05/08 05:44:57;;;;;;;11.40;9.53;;;;;;;13.01;100.00;99613.78;4990965;28;20195;-79
2023/05/08 05:47:27;;;;;;;11.53;9.80;;;;;;;13.14;100.00;99602.25;4990757;28;20223;-79
2023/05/08 05:49:55;;;;;;;11.53;10.10;;;;;;;12.99;100.00;99605.06;4992217;28;20203;-79
2023/05/08 05:52:26;;;;;;;10.23;9.23;;;;;;;12.94;100.00;99601.88;4991900;28;20206;-79
2023/05/08 05:54:54;;;;;;;10.70;9.60;;;;;;;12.75;100.00;99600.44;4990064;28;20203;-78
2023/05/08 05:57:23;;;;;;;10.33;9.33;;;;;;;12.65;100.00;99614.44;4993057;28;20203;-78
2023/05/08 05:59:51;;;;;;;10.97;9.87;;;;;;;12.76;100.00;99609.25;4988515;28;20289;-78
2023/05/08 06:02:23;;;;;;;10.77;9.67;;;;;;;12.77;100.00;99608.31;4990471;28;20231;-79
2023/05/08 06:04:52;;;;;;;10.37;9.30;;;;;;;12.76;100.00;99610.13;4996439;28;20257;-79
2023/05/08 06:07:20;;;;;;;15.17;10.60;;;;;;;12.47;100.00;99611.16;4990309;28;20207;-79
2023/05/08 06:09:50;;;;;;;12.33;10.80;;;;;;;12.44;100.00;99619.31;4986157;28;20191;-79
2023/05/08 06:12:18;;;;;;;12.30;10.80;;;;;;;12.44;100.00;99616.66;4993461;28;20207;-79
2023/05/08 06:14:46;;;;;;;12.63;10.37;;;;;;;12.47;100.00;99619.97;4987856;28;20207;-78
2023/05/08 06:17:14;;;;;;;12.53;10.67;;;;;;;12.50;100.00;99625.09;4986522;28;20195;-78
2023/05/08 06:19:44;;;;;;;12.57;11.27;;;;;;;12.52;100.00;99631.16;4993706;28;20187;-78
2023/05/08 06:22:12;;;;;;;12.23;10.93;;;;;;;12.48;100.00;99626.16;4991289;28;20199;-79
2023/05/08 06:24:40;;;;;;;13.90;11.30;;;;;;;12.61;100.00;99635.03;4933172;29;20201;-78
2023/05/08 06:27:09;;;;;;;13.97;10.97;;;;;;;12.56;100.00;99624.69;4931798;29;20270;-79
2023/05/08 06:29:37;;;;;;;12.47;11.17;;;;;;;12.67;100.00;99629.31;4931105;29;20205;-79
2023/05/08 06:32:06;;;;;;;12.87;11.30;;;;;;;12.70;100.00;99628.25;4927042;29;20209;-78
2023/05/08 06:34:34;;;;;;;13.20;11.40;;;;;;;12.86;100.00;99623.66;4933736;29;20209;-79
2023/05/08 06:37:04;;;;;;;11.70;10.50;;;;;;;12.85;100.00;99632.59;4927867;29;20194;-79
2023/05/08 06:39:32;;;;;;;12.47;11.17;;;;;;;12.73;100.00;99630.69;4926888;29;20198;-79
2023/05/08 06:42:01;;;;;;;14.77;11.97;;;;;;;12.74;100.00;99633.28;4939188;28;20281;-79
2023/05/08 06:44:29;;;;;;;13.27;11.23;;;;;;;12.66;100.00;99632.94;4986828;28;20202;-79
2023/05/08 06:46:58;;;;;;;12.97;10.93;;;;;;;12.79;100.00;99625.00;4989142;28;20261;-78
2023/05/08 06:49:26;;;;;;;14.37;11.10;;;;;;;12.63;100.00;99630.44;4988714;28;20278;-78
2023/05/08 06:51:55;;;;;;;13.60;12.10;;;;;;;12.79;100.00;99643.59;4989193;28;20202;-79
2023/05/08 06:54:26;;;;;;;13.70;12.20;;;;;;;12.82;100.00;99638.94;4988264;28;20210;-79
2023/05/08 06:56:55;;;;;;;13.20;11.80;;;;;;;12.81;100.00;99652.31;4989949;28;20198;-78
2023/05/08 06:59:25;;;;;;;13.50;12.10;;;;;;;12.79;100.00;99648.94;4988829;28;20206;-78
2023/05/08 07:01:54;;;;;;;12.97;11.23;;;;;;;12.64;100.00;99648.09;4993025;28;20285;-78
2023/05/08 07:04:22;;;;;;;15.47;12.50;;;;;;;12.61;100.00;99643.84;4987705;28;20234;-79
2023/05/08 07:06:50;;;;;;;15.77;12.13;;;;;;;12.56;100.00;99638.00;4991425;28;20398;-79
2023/05/08 07:09:19;;;;;;;14.50;12.80;;;;;;;12.75;100.00;99647.44;4989545;28;20214;-78
2023/05/08 07:11:51;;;;;;;14.00;12.27;;;;;;;12.77;100.00;99645.53;4991043;28;20207;-79
2023/05/08 07:14:20;;;;;;;14.43;12.70;;;;;;;12.95;100.00;99648.78;4989653;28;20205;-79
2023/05/08 07:16:48;;;;;;;15.07;12.57;;;;;;;13.05;100.00;99645.41;4989861;28;20199;-78
2023/05/08 07:19:16;;;;;;;15.53;12.23;;;;;;;13.06;100.00;99647.13;4989398;28;20211;-78
2023/05/08 07:21:48;;;;;;;15.30;12.40;;;;;;;13.05;100.00;99649.88;4954693;28;20211;-78
2023/05/08 07:24:16;;;;;;;14.13;11.97;;;;;;;12.93;100.00;99648.00;4894650;29;20237;-78
2023/05/08 07:26:45;;;;;;;14.77;12.50;;;;;;;12.95;100.00;99649.63;4892173;29;20214;-78
2023/05/08 07:29:15;;;;;;;15.10;12.33;;;;;;;13.06;100.00;99652.44;4894450;29;20210;-78
2023/05/08 07:31:44;;;;;;;15.30;12.90;;;;;;;13.04;100.00;99649.03;4889416;29;20255;-78
2023/05/08 07:34:16;;;;;;;13.67;12.17;;;;;;;13.10;100.00;99651.25;4893086;29;20207;-78
2023/05/08 07:36:44;;;;;;;13.53;12.10;;;;;;;13.23;100.00;99659.34;4891184;29;20243;-78
2023/05/08 07:39:13;;;;;;;15.33;12.57;;;;;;;13.14;100.00;99659.91;4889242;29;20191;-78
2023/05/08 07:41:41;;;;;;;15.23;13.33;;;;;;;13.27;100.00;99662.63;4910995;28;20222;-78
2023/05/08 07:44:10;;;;;;;17.10;13.83;;;;;;;13.48;100.00;99657.66;4986483;28;20278;-79
2023/05/08 07:46:40;;;;;;;16.93;13.97;;;;;;;13.41;100.00;99657.22;4992339;28;20199;-78
2023/05/08 07:49:08;;;;;;;18.03;13.57;;;;;;;13.39;100.00;99654.66;4985978;28;20199;-79
2023/05/08 07:51:39;;;;;;;18.13;14.43;;;;;;;13.55;100.00;99659.81;4985995;28;20237;-79
2023/05/08 07:54:07;;;;;;;18.27;12.80;;;;;;;13.59;100.00;99660.44;4989506;28;20222;-79
2023/05/08 07:56:36;;;;;;;18.03;13.20;;;;;;;13.73;100.00;99655.03;4988580;28;20199;-78
2023/05/08 07:59:05;;;;;;;16.13;13.60;;;;;;;13.89;100.00;99657.47;4991887;28;20274;-79
2023/05/08 08:01:33;;;;;;;17.23;13.03;;;;;;;13.94;100.00;99648.22;4991329;28;20223;-79
2023/05/08 08:04:05;;;;;;;15.77;12.80;;;;;;;13.96;100.00;99650.75;4991442;28;20257;-79
2023/05/08 08:06:33;;;;;;;14.53;12.93;;;;;;;14.11;100.00;99647.03;4993206;28;20234;-78
2023/05/08 08:09:02;;;;;;;15.67;13.23;;;;;;;14.15;100.00;99650.31;4987287;28;20204;-79
2023/05/08 08:11:30;;;;;;;13.60;11.67;;;;;;;14.28;100.00;99646.69;4987775;28;20203;-78
2023/05/08 08:13:58;;;;;;;13.43;12.03;;;;;;;14.44;100.00;99638.44;4984604;28;20187;-79
2023/05/08 08:16:27;;;;;;;12.73;11.50;;;;;;;14.59;100.00;99642.69;4929567;29;20205;-78
2023/05/08 08:18:55;;;;;;;13.63;12.23;;;;;;;14.58;100.00;99638.34;4926409;29;20203;-79
2023/05/08 08:21:26;;;;;;;13.37;11.13;;;;;;;14.61;100.00;99645.25;4922072;29;20225;-79
2023/05/08 08:23:55;;;;;;;12.37;11.10;;;;;;;14.75;100.00;99639.75;4926311;29;20205;-79
2023/05/08 08:26:24;;;;;;;12.23;10.93;;;;;;;14.94;100.00;99631.22;4927985;29;20205;-79
2023/05/08 08:28:52;;;;;;;11.40;10.30;;;;;;;14.97;100.00;99644.38;4923328;29;20205;-79
2023/05/08 08:31:21;;;;;;;10.30;9.27;;;;;;;15.05;100.00;99628.59;4923456;29;20327;-79
2023/05/08 08:33:49;;;;;;;11.07;9.97;;;;;;;15.13;100.00;99626.22;4934204;28;20203;-80
2023/05/08 08:36:18;;;;;;;11.93;10.70;;;;;;;14.80;100.00;99636.75;4988817;28;20209;-79
2023/05/08 08:38:48;;;;;;;10.90;9.73;;;;;;;14.96;100.00;99624.00;4986564;28;20215;-79
2023/05/08 08:41:16;;;;;;;12.97;11.67;;;;;;;14.91;100.00;99618.13;4993793;28;20274;-79
2023/05/08 08:43:45;;;;;;;11.70;10.47;;;;;;;14.96;100.00;99618.66;4987418;28;20191;-79
2023/05/08 08:46:14;;;;;;;10.67;9.40;;;;;;;15.29;100.00;99611.72;4988363;28;20206;-79
2023/05/08 08:48:45;;;;;;;10.33;9.33;;;;;;;15.10;100.00;99614.94;4988163;28;20657;-79
2023/05/08 08:51:18;;;;;;;11.90;9.40;;;;;;;15.44;100.00;99605.19;4989395;28;20202;-78
2023/05/08 08:53:53;;;;;;;11.20;9.40;;;;;;;15.67;100.00;99603.47;4985595;28;20207;-79
2023/05/08 08:56:24;;;;;;;11.87;9.60;;;;;;;15.74;100.00;99618.06;4989689;28;20222;-79
2023/05/08 08:58:58;;;;;;;11.03;9.47;;;;;;;15.40;100.00;99617.94;4984081;28;20194;-79
2023/05/08 09:01:28;;;;;;;10.63;9.37;;;;;;;15.74;100.00;99613.56;4993999;28;20231;-79
2023/05/08 09:03:58;;;;;;;11.10;9.00;;;;;;;16.03;100.00;99623.78;4988976;28;20198;-79
2023/05/08 09:06:27;;;;;;;10.00;9.00;;;;;;;16.18;100.00;99624.38;4991184;28;20202;-79
2023/05/08 09:08:57;;;;;;;9.07;8.17;;;;;;;16.34;100.00;99619.50;5001397;28;20203;-79
2023/05/08 09:11:27;;;;;;;9.73;8.83;;;;;;;15.84;100.00;99627.06;5001227;28;20191;-79
2023/05/08 09:13:56;;;;;;;9.80;8.80;;;;;;;15.45;100.00;99623.78;4999865;28;20246;-79
2023/05/08 09:16:25;;;;;;;9.70;8.70;;;;;;;15.91;100.00;99624.72;5003628;28;20203;-79
2023/05/08 09:18:53;;;;;;;10.50;9.50;;;;;;;15.71;100.00;99626.28;4944708;29;20221;-79
2023/05/08 09:21:22;;;;;;;10.33;9.33;;;;;;;16.08;100.00;99624.25;4935609;29;20201;-79
2023/05/08 09:24:00;;;;;;;9.73;8.77;;;;;;;16.35;100.00;99629.22;4935356;29;20201;-79
2023/05/08 09:26:31;;;;;;;9.70;8.80;;;;;;;16.43;100.00;99623.28;4932592;29;20201;-79
2023/05/08 09:29:09;;;;;;;10.30;8.30;;;;;;;16.31;100.00;99619.75;4929270;29;20225;-79
2023/05/08 09:31:39;;;;;;;9.93;8.93;;;;;;;16.21;100.00;99629.47;4924046;29;20212;-79
2023/05/08 09:34:09;;;;;;;10.33;8.70;;;;;;;15.70;100.00;99627.25;4930957;29;20213;-80
2023/05/08 09:36:39;;;;;;;10.00;8.70;;;;;;;15.80;100.00;99628.25;4941881;28;20191;-79
2023/05/08 09:39:12;;;;;;;10.60;9.57;;;;;;;16.15;100.00;99625.47;4991171;28;20203;-80
2023/05/08 09:41:57;;;;;;;11.27;9.50;;;;;;;15.71;100.00;99640.50;4993553;28;20198;-79
2023/05/08 09:44:26;;;;;;;10.70;9.63;;;;;;;15.88;100.00;99633.00;4990604;28;20195;-79
2023/05/08 09:47:10;;;;;;;10.73;9.73;;;;;;;16.24;100.00;99634.59;4985190;28;20258;-79
2023/05/08 09:49:39;;;;;;;11.43;9.63;;;;;;;16.36;100.00;99644.28;4990433;28;20210;-79
2023/05/08 09:52:08;;;;;;;10.33;8.97;;;;;;;16.24;100.00;99635.44;4982651;28;20258;-80
2023/05/08 09:54:38;;;;;;;10.60;9.10;;;;;;;16.51;100.00;99639.56;4987233;28;20270;-79
2023/05/08 09:57:13;;;;;;;10.57;9.50;;;;;;;16.47;100.00;99638.94;4986561;28;20658;-79
2023/05/08 09:59:41;;;;;;;10.47;9.33;;;;;;;16.47;100.00;99638.94;4988614;28;20202;-79
2023/05/08 10:02:15;;;;;;;9.50;8.60;;;;;;;16.28;100.00;99638.69;4989870;28;20230;-79
2023/05/08 10:04:43;;;;;;;10.80;9.70;;;;;;;16.39;100.00;99638.69;4985965;28;20191;-78
2023/05/08 10:07:11;;;;;;;9.27;8.37;;;;;;;16.63;100.00;99641.22;4988963;28;20499;-79
2023/05/08 10:09:58;;;;;;;10.77;8.70;;;;;;;16.55;100.00;99639.16;4986132;28;20741;-79
2023/05/08 10:12:27;;;;;;;10.20;9.17;;;;;;;16.47;100.00;99638.94;4990369;28;20202;-79
2023/05/08 10:14:56;;;;;;;9.03;8.13;;;;;;;16.71;100.00;99638.81;4991380;28;20206;-78
2023/05/08 10:17:28;;;;;;;8.83;7.97;;;;;;;16.69;100.00;99631.84;4993518;28;20195;-78
2023/05/08 10:20:00;;;;;;;10.07;9.07;;;;;;;16.74;100.00;99627.00;4989431;28;20203;-80
2023/05/08 10:22:30;;;;;;;9.13;8.23;;;;;;;16.78;100.00;99625.75;4988092;28;20223;-79
2023/05/08 10:25:02;;;;;;;8.63;7.83;;;;;;;16.69;100.00;99626.50;4991446;28;20254;-79
2023/05/08 10:27:35;;;;;;;9.03;8.13;;;;;;;16.69;100.00;99627.34;4988590;28;20252;-79
2023/05/08 10:30:04;;;;;;;9.43;8.50;;;;;;;16.75;100.00;99631.38;4990881;28;20670;-79
2023/05/08 10:32:39;;;;;;;9.73;8.70;;;;;;;16.63;100.00;99629.66;4993360;28;20199;-78
2023/05/08 10:35:10;;;;;;;9.30;8.40;;;;;;;16.53;100.00;99627.75;4985964;28;20203;-79
2023/05/08 10:37:42;;;;;;;9.80;8.80;;;;;;;16.38;100.00;99631.66;4993318;28;20199;-79
2023/05/08 10:40:14;;;;;;;44.70;32.80;;;;;;;16.02;100.00;99620.25;4992895;28;20202;-79
2023/05/08 10:42:47;;;;;;;9.47;8.57;;;;;;;16.22;100.00;99629.38;4989918;28;20233;-78
2023/05/08 10:45:16;;;;;;;9.53;8.63;;;;;;;16.34;100.00;99619.50;4992038;28;20195;-78
2023/05/08 10:48:17;;;;;;;10.73;9.73;;;;;;;15.90;100.00;99621.22;4988883;28;20191;-78
2023/05/08 10:50:57;;;;;;;10.00;9.00;;;;;;;15.45;100.00;99623.78;4986844;28;20202;-79
2023/05/08 10:53:34;;;;;;;13.87;12.53;;;;;;;15.19;100.00;99632.94;4996407;28;20209;-78
2023/05/08 10:56:05;;;;;;;13.50;12.20;;;;;;;15.07;100.00;99645.38;4997135;28;20231;-78
2023/05/08 10:58:34;;;;;;;11.77;10.60;;;;;;;15.26;100.00;99641.34;4988264;28;20199;-79
2023/05/08 11:01:32;;;;;;;15.20;13.60;;;;;;;14.96;100.00;99645.34;4988266;28;20234;-79
2023/05/08 11:04:00;;;;;;;12.53;10.70;;;;;;;15.05;100.00;99643.75;4992012;28;20233;-78
2023/05/08 11:06:51;;;;;;;12.57;10.93;;;;;;;15.11;100.00;99644.16;4989270;28;20565;-79
2023/05/08 11:09:22;;;;;;;13.30;12.10;;;;;;;15.20;100.00;99636.44;4990006;28;20270;-78
2023/05/08 11:12:17;;;;;;;12.60;11.30;;;;;;;15.61;100.00;99636.81;4988759;28;20199;-79
2023/05/08 11:14:55;;;;;;;12.33;11.03;;;;;;;15.95;100.00;99624.38;4988641;28;20187;-79
2023/05/08 11:17:25;;;;;;;12.90;11.20;;;;;;;16.26;100.00;99628.13;4988685;28;20206;-78
2023/05/08 11:19:58;;;;;;;14.80;11.03;;;;;;;16.36;100.00;99619.38;4984693;28;20203;-79
2023/05/08 11:22:28;;;;;;;13.97;10.27;;;;;;;16.43;100.00;99621.44;4989846;28;20290;-79
2023/05/08 11:24:59;;;;;;;12.13;10.73;;;;;;;16.50;100.00;99611.06;4989334;28;20262;-79
2023/05/08 11:27:41;;;;;;;12.10;10.17;;;;;;;16.71;100.00;99608.53;4991799;28;20200;-79
2023/05/08 11:30:34;;;;;;;10.70;9.60;;;;;;;16.84;100.00;99603.84;4991497;28;20195;-78
2023/05/08 11:33:16;;;;;;;11.17;10.00;;;;;;;16.27;100.00;99607.59;4990022;28;20191;-78
2023/05/08 11:35:47;;;;;;;11.97;10.77;;;;;;;16.06;100.00;99610.16;4988260;28;20199;-78